sensor_id;sensor_type;location;lat;lon;timestamp;P1;durP1;ratioP1;P2;durP2;ratioP2
18677;SDS011;9469;51.114;13.914;2023-04-08T00:04:51;20.20;;;14.63;;
18677;SDS011;9469;51.114;13.914;2023-04-08T00:10:02;20.60;;;14.17;;
18677;SDS011;9469;51.114;13.914;2023-04-08T00:15:09;23.90;;;14.77;;
18677;SDS011;9469;51.114;13.914;2023-04-08T00:20:14;22.60;;;14.77;;
18677;SDS011;9469;51.114;13.914;2023-04-08T00:25:22;28.40;;;15.07;;
18677;SDS011;9469;51.114;13.914;2023-04-08T00:30:28;23.43;;;15.40;;
18677;SDS011;9469;51.114;13.914;2023-04-08T00:35:33;29.53;;;14.73;;
18677;SDS011;9469;51.114;13.914;2023-04-08T00:40:41;40.50;;;16.10;;
18677;SDS011;9469;51.114;13.914;2023-04-08T00:45:46;31.60;;;15.83;;
18677;SDS011;9469;51.114;13.914;2023-04-08T00:50:52;32.70;;;16.23;;
18677;SDS011;9469;51.114;13.914;2023-04-08T00:56:00;34.63;;;16.00;;
18677;SDS011;9469;51.114;13.914;2023-04-08T01:01:08;40.17;;;17.17;;
18677;SDS011;9469;51.114;13.914;2023-04-08T01:06:22;30.63;;;15.53;;
18677;SDS011;9469;51.114;13.914;2023-04-08T01:11:37;25.53;;;14.33;;
18677;SDS011;9469;51.114;13.914;2023-04-08T01:16:48;27.70;;;13.77;;
18677;SDS011;9469;51.114;13.914;2023-04-08T01:21:57;29.93;;;14.20;;
18677;SDS011;9469;51.114;13.914;2023-04-08T01:27:10;28.27;;;13.27;;
18677;SDS011;9469;51.114;13.914;2023-04-08T01:32:17;22.40;;;13.90;;
18677;SDS011;9469;51.114;13.914;2023-04-08T01:37:23;24.57;;;13.27;;
18677;SDS011;9469;51.114;13.914;2023-04-08T01:42:34;23.67;;;12.30;;
18677;SDS011;9469;51.114;13.914;2023-04-08T01:47:42;15.10;;;11.43;;
18677;SDS011;9469;51.114;13.914;2023-04-08T01:52:50;17.80;;;11.73;;
18677;SDS011;9469;51.114;13.914;2023-04-08T01:58:01;16.03;;;10.43;;
18677;SDS011;9469;51.114;13.914;2023-04-08T02:03:09;13.07;;;9.83;;
18677;SDS011;9469;51.114;13.914;2023-04-08T02:08:19;12.37;;;9.47;;
18677;SDS011;9469;51.114;13.914;2023-04-08T02:13:30;12.27;;;8.87;;
18677;SDS011;9469;51.114;13.914;2023-04-08T02:18:36;11.73;;;8.23;;
18677;SDS011;9469;51.114;13.914;2023-04-08T02:23:48;13.07;;;9.20;;
18677;SDS011;9469;51.114;13.914;2023-04-08T02:28:57;11.43;;;8.60;;
18677;SDS011;9469;51.114;13.914;2023-04-08T02:34:04;11.27;;;8.20;;
18677;SDS011;9469;51.114;13.914;2023-04-08T02:39:11;11.77;;;8.80;;
18677;SDS011;9469;51.114;13.914;2023-04-08T02:44:18;11.27;;;7.60;;
18677;SDS011;9469;51.114;13.914;2023-04-08T02:49:28;9.53;;;7.53;;
18677;SDS011;9469;51.114;13.914;2023-04-08T02:54:33;9.23;;;6.70;;
18677;SDS011;9469;51.114;13.914;2023-04-08T02:59:41;9.20;;;7.23;;
18677;SDS011;9469;51.114;13.914;2023-04-08T03:04:46;7.77;;;6.07;;
18677;SDS011;9469;51.114;13.914;2023-04-08T03:09:51;9.17;;;6.00;;
18677;SDS011;9469;51.114;13.914;2023-04-08T03:14:59;7.57;;;5.77;;
18677;SDS011;9469;51.114;13.914;2023-04-08T03:20:05;7.73;;;5.60;;
18677;SDS011;9469;51.114;13.914;2023-04-08T03:25:11;8.47;;;5.87;;
18677;SDS011;9469;51.114;13.914;2023-04-08T03:30:22;8.43;;;6.47;;
18677;SDS011;9469;51.114;13.914;2023-04-08T03:35:27;7.90;;;5.67;;
18677;SDS011;9469;51.114;13.914;2023-04-08T03:40:33;7.20;;;5.63;;
18677;SDS011;9469;51.114;13.914;2023-04-08T03:45:41;8.73;;;6.00;;
18677;SDS011;9469;51.114;13.914;2023-04-08T03:50:49;7.10;;;5.17;;
18677;SDS011;9469;51.114;13.914;2023-04-08T03:55:54;6.90;;;5.33;;
18677;SDS011;9469;51.114;13.914;2023-04-08T04:01:03;8.03;;;5.77;;
18677;SDS011;9469;51.114;13.914;2023-04-08T04:06:09;11.63;;;5.63;;
18677;SDS011;9469;51.114;13.914;2023-04-08T04:11:14;9.97;;;6.67;;
18677;SDS011;9469;51.114;13.914;2023-04-08T04:16:22;12.60;;;6.40;;
18677;SDS011;9469;51.114;13.914;2023-04-08T04:21:27;12.50;;;6.33;;
18677;SDS011;9469;51.114;13.914;2023-04-08T04:26:32;8.83;;;5.83;;
18677;SDS011;9469;51.114;13.914;2023-04-08T04:31:40;8.53;;;6.43;;
18677;SDS011;9469;51.114;13.914;2023-04-08T04:36:47;8.87;;;5.67;;
18677;SDS011;9469;51.114;13.914;2023-04-08T04:41:52;7.67;;;5.87;;
18677;SDS011;9469;51.114;13.914;2023-04-08T04:47:02;8.60;;;6.10;;
18677;SDS011;9469;51.114;13.914;2023-04-08T04:52:08;6.53;;;5.53;;
18677;SDS011;9469;51.114;13.914;2023-04-08T04:57:13;6.90;;;5.70;;
18677;SDS011;9469;51.114;13.914;2023-04-08T05:02:21;7.47;;;5.47;;
18677;SDS011;9469;51.114;13.914;2023-04-08T05:07:26;9.57;;;5.73;;
18677;SDS011;9469;51.114;13.914;2023-04-08T05:12:31;11.30;;;5.63;;
18677;SDS011;9469;51.114;13.914;2023-04-08T05:17:41;7.70;;;5.10;;
18677;SDS011;9469;51.114;13.914;2023-04-08T05:22:46;9.03;;;6.13;;
18677;SDS011;9469;51.114;13.914;2023-04-08T05:27:52;8.47;;;5.20;;
18677;SDS011;9469;51.114;13.914;2023-04-08T05:33:00;8.00;;;5.63;;
18677;SDS011;9469;51.114;13.914;2023-04-08T05:38:06;8.50;;;5.53;;
18677;SDS011;9469;51.114;13.914;2023-04-08T05:43:11;9.03;;;5.73;;
18677;SDS011;9469;51.114;13.914;2023-04-08T05:48:19;8.10;;;5.70;;
18677;SDS011;9469;51.114;13.914;2023-04-08T05:53:24;6.73;;;5.67;;
18677;SDS011;9469;51.114;13.914;2023-04-08T05:58:29;8.03;;;6.03;;
18677;SDS011;9469;51.114;13.914;2023-04-08T06:03:39;8.60;;;6.33;;
18677;SDS011;9469;51.114;13.914;2023-04-08T06:08:45;11.10;;;7.70;;
18677;SDS011;9469;51.114;13.914;2023-04-08T06:13:50;15.57;;;8.97;;
18677;SDS011;9469;51.114;13.914;2023-04-08T06:18:58;17.17;;;11.10;;
18677;SDS011;9469;51.114;13.914;2023-04-08T06:24:03;19.60;;;11.57;;
18677;SDS011;9469;51.114;13.914;2023-04-08T06:29:11;25.27;;;14.23;;
18677;SDS011;9469;51.114;13.914;2023-04-08T06:34:19;25.17;;;15.33;;
18677;SDS011;9469;51.114;13.914;2023-04-08T06:39:24;25.57;;;15.43;;
18677;SDS011;9469;51.114;13.914;2023-04-08T06:44:29;27.80;;;17.37;;
18677;SDS011;9469;51.114;13.914;2023-04-08T06:49:37;29.10;;;16.97;;
18677;SDS011;9469;51.114;13.914;2023-04-08T06:54:43;29.03;;;17.47;;
18677;SDS011;9469;51.114;13.914;2023-04-08T06:59:48;23.70;;;15.63;;
18677;SDS011;9469;51.114;13.914;2023-04-08T07:04:56;24.83;;;15.13;;
18677;SDS011;9469;51.114;13.914;2023-04-08T07:10:02;21.50;;;13.80;;
18677;SDS011;9469;51.114;13.914;2023-04-08T07:15:11;17.47;;;12.37;;
18677;SDS011;9469;51.114;13.914;2023-04-08T07:20:19;14.60;;;10.67;;
18677;SDS011;9469;51.114;13.914;2023-04-08T07:25:26;14.13;;;10.07;;
18677;SDS011;9469;51.114;13.914;2023-04-08T07:30:32;13.53;;;9.80;;
18677;SDS011;9469;51.114;13.914;2023-04-08T07:35:40;14.00;;;8.67;;
18677;SDS011;9469;51.114;13.914;2023-04-08T07:40:45;11.77;;;8.03;;
18677;SDS011;9469;51.114;13.914;2023-04-08T07:45:50;9.70;;;7.03;;
18677;SDS011;9469;51.114;13.914;2023-04-08T07:51:01;9.47;;;7.83;;
18677;SDS011;9469;51.114;13.914;2023-04-08T07:56:11;9.83;;;7.53;;
18677;SDS011;9469;51.114;13.914;2023-04-08T08:01:19;10.03;;;7.70;;
18677;SDS011;9469;51.114;13.914;2023-04-08T08:06:35;10.73;;;8.57;;
18677;SDS011;9469;51.114;13.914;2023-04-08T08:11:40;11.43;;;8.13;;
18677;SDS011;9469;51.114;13.914;2023-04-08T08:16:47;13.67;;;9.20;;
18677;SDS011;9469;51.114;13.914;2023-04-08T08:21:59;13.00;;;9.60;;
18677;SDS011;9469;51.114;13.914;2023-04-08T08:27:04;14.50;;;10.10;;
18677;SDS011;9469;51.114;13.914;2023-04-08T08:32:10;14.07;;;10.37;;
18677;SDS011;9469;51.114;13.914;2023-04-08T08:37:19;14.40;;;10.83;;
18677;SDS011;9469;51.114;13.914;2023-04-08T08:42:24;16.97;;;10.90;;
18677;SDS011;9469;51.114;13.914;2023-04-08T08:47:30;17.47;;;11.83;;
18677;SDS011;9469;51.114;13.914;2023-04-08T08:52:38;17.13;;;12.90;;
18677;SDS011;9469;51.114;13.914;2023-04-08T08:57:46;15.33;;;10.67;;
18677;SDS011;9469;51.114;13.914;2023-04-08T09:02:54;17.23;;;11.13;;
18677;SDS011;9469;51.114;13.914;2023-04-08T09:08:02;13.37;;;10.10;;
18677;SDS011;9469;51.114;13.914;2023-04-08T09:13:24;14.93;;;11.10;;
18677;SDS011;9469;51.114;13.914;2023-04-08T09:18:40;17.83;;;10.97;;
18677;SDS011;9469;51.114;13.914;2023-04-08T09:23:56;15.70;;;11.00;;
18677;SDS011;9469;51.114;13.914;2023-04-08T09:29:02;17.83;;;11.77;;
18677;SDS011;9469;51.114;13.914;2023-04-08T09:34:26;17.93;;;11.67;;
18677;SDS011;9469;51.114;13.914;2023-04-08T09:39:37;18.90;;;11.60;;
18677;SDS011;9469;51.114;13.914;2023-04-08T09:44:53;17.13;;;11.50;;
18677;SDS011;9469;51.114;13.914;2023-04-08T09:50:01;18.60;;;11.97;;
18677;SDS011;9469;51.114;13.914;2023-04-08T09:55:13;17.07;;;11.40;;
18677;SDS011;9469;51.114;13.914;2023-04-08T10:00:27;16.20;;;10.50;;
18677;SDS011;9469;51.114;13.914;2023-04-08T10:05:37;15.80;;;11.13;;
18677;SDS011;9469;51.114;13.914;2023-04-08T10:10:49;15.10;;;9.97;;
18677;SDS011;9469;51.114;13.914;2023-04-08T10:21:30;17.70;;;12.03;;
18677;SDS011;9469;51.114;13.914;2023-04-08T10:26:42;12.07;;;9.47;;
18677;SDS011;9469;51.114;13.914;2023-04-08T10:31:50;13.93;;;9.90;;
18677;SDS011;9469;51.114;13.914;2023-04-08T10:36:55;15.37;;;11.47;;
18677;SDS011;9469;51.114;13.914;2023-04-08T10:42:07;15.80;;;11.40;;
18677;SDS011;9469;51.114;13.914;2023-04-08T10:47:12;17.03;;;11.60;;
18677;SDS011;9469;51.114;13.914;2023-04-08T10:52:20;17.53;;;12.20;;
18677;SDS011;9469;51.114;13.914;2023-04-08T10:57:32;16.97;;;12.17;;
18677;SDS011;9469;51.114;13.914;2023-04-08T11:02:38;19.27;;;12.60;;
18677;SDS011;9469;51.114;13.914;2023-04-08T11:07:45;18.00;;;13.23;;
18677;SDS011;9469;51.114;13.914;2023-04-08T11:12:53;21.83;;;13.73;;
18677;SDS011;9469;51.114;13.914;2023-04-08T11:18:01;25.33;;;14.60;;
18677;SDS011;9469;51.114;13.914;2023-04-08T11:23:10;24.30;;;16.17;;
18677;SDS011;9469;51.114;13.914;2023-04-08T11:28:19;23.10;;;15.77;;
18677;SDS011;9469;51.114;13.914;2023-04-08T11:33:26;25.57;;;17.20;;
18677;SDS011;9469;51.114;13.914;2023-04-08T11:38:31;22.73;;;15.73;;
18677;SDS011;9469;51.114;13.914;2023-04-08T11:43:44;28.67;;;19.47;;
18677;SDS011;9469;51.114;13.914;2023-04-08T11:48:56;30.60;;;18.97;;
18677;SDS011;9469;51.114;13.914;2023-04-08T11:54:04;28.40;;;19.37;;
18677;SDS011;9469;51.114;13.914;2023-04-08T11:59:12;27.63;;;17.40;;
18677;SDS011;9469;51.114;13.914;2023-04-08T12:04:17;30.60;;;19.00;;
18677;SDS011;9469;51.114;13.914;2023-04-08T12:09:23;27.20;;;18.97;;
18677;SDS011;9469;51.114;13.914;2023-04-08T12:14:37;30.97;;;18.20;;
18677;SDS011;9469;51.114;13.914;2023-04-08T12:19:45;26.87;;;16.63;;
18677;SDS011;9469;51.114;13.914;2023-04-08T12:25:08;26.07;;;16.20;;
18677;SDS011;9469;51.114;13.914;2023-04-08T12:30:17;24.07;;;15.70;;
18677;SDS011;9469;51.114;13.914;2023-04-08T12:35:23;25.47;;;14.73;;
18677;SDS011;9469;51.114;13.914;2023-04-08T12:40:28;24.97;;;14.83;;
18677;SDS011;9469;51.114;13.914;2023-04-08T12:45:36;26.17;;;17.00;;
18677;SDS011;9469;51.114;13.914;2023-04-08T12:50:43;25.60;;;17.13;;
18677;SDS011;9469;51.114;13.914;2023-04-08T12:55:49;25.97;;;16.43;;
18677;SDS011;9469;51.114;13.914;2023-04-08T13:01:00;23.80;;;16.53;;
18677;SDS011;9469;51.114;13.914;2023-04-08T13:06:05;25.53;;;15.90;;
18677;SDS011;9469;51.114;13.914;2023-04-08T13:11:14;24.97;;;17.40;;
18677;SDS011;9469;51.114;13.914;2023-04-08T13:16:25;24.87;;;16.67;;
18677;SDS011;9469;51.114;13.914;2023-04-08T13:21:30;24.20;;;16.57;;
18677;SDS011;9469;51.114;13.914;2023-04-08T13:26:35;22.27;;;15.47;;
18677;SDS011;9469;51.114;13.914;2023-04-08T13:31:43;22.83;;;16.17;;
18677;SDS011;9469;51.114;13.914;2023-04-08T13:36:49;22.80;;;15.50;;
18677;SDS011;9469;51.114;13.914;2023-04-08T13:41:54;24.13;;;14.30;;
18677;SDS011;9469;51.114;13.914;2023-04-08T13:47:02;23.70;;;15.13;;
18677;SDS011;9469;51.114;13.914;2023-04-08T13:52:09;27.57;;;16.23;;
18677;SDS011;9469;51.114;13.914;2023-04-08T13:57:14;22.73;;;16.00;;
18677;SDS011;9469;51.114;13.914;2023-04-08T14:02:22;23.20;;;15.40;;
18677;SDS011;9469;51.114;13.914;2023-04-08T14:07:31;22.97;;;15.60;;
18677;SDS011;9469;51.114;13.914;2023-04-08T14:12:36;22.07;;;15.17;;
18677;SDS011;9469;51.114;13.914;2023-04-08T14:17:46;20.40;;;15.00;;
18677;SDS011;9469;51.114;13.914;2023-04-08T14:22:54;19.67;;;14.63;;
18677;SDS011;9469;51.114;13.914;2023-04-08T14:28:03;19.20;;;14.03;;
18677;SDS011;9469;51.114;13.914;2023-04-08T14:33:11;23.00;;;14.50;;
18677;SDS011;9469;51.114;13.914;2023-04-08T14:38:16;21.67;;;14.90;;
18677;SDS011;9469;51.114;13.914;2023-04-08T14:43:22;21.53;;;15.37;;
18677;SDS011;9469;51.114;13.914;2023-04-08T14:48:31;22.47;;;15.60;;
18677;SDS011;9469;51.114;13.914;2023-04-08T14:53:36;23.17;;;15.53;;
18677;SDS011;9469;51.114;13.914;2023-04-08T14:58:44;22.00;;;15.27;;
18677;SDS011;9469;51.114;13.914;2023-04-08T15:03:54;22.00;;;16.40;;
18677;SDS011;9469;51.114;13.914;2023-04-08T15:09:02;23.13;;;16.97;;
18677;SDS011;9469;51.114;13.914;2023-04-08T15:14:10;22.67;;;16.07;;
18677;SDS011;9469;51.114;13.914;2023-04-08T15:19:18;20.70;;;15.87;;
18677;SDS011;9469;51.114;13.914;2023-04-08T15:24:24;23.63;;;16.93;;
18677;SDS011;9469;51.114;13.914;2023-04-08T15:29:29;20.70;;;14.70;;
18677;SDS011;9469;51.114;13.914;2023-04-08T15:34:37;24.80;;;17.37;;
18677;SDS011;9469;51.114;13.914;2023-04-08T15:39:42;25.00;;;16.33;;
18677;SDS011;9469;51.114;13.914;2023-04-08T15:44:50;24.37;;;16.63;;
18677;SDS011;9469;51.114;13.914;2023-04-08T15:49:59;22.43;;;15.83;;
18677;SDS011;9469;51.114;13.914;2023-04-08T15:55:06;23.70;;;16.07;;
18677;SDS011;9469;51.114;13.914;2023-04-08T16:00:13;23.10;;;16.57;;
18677;SDS011;9469;51.114;13.914;2023-04-08T16:05:23;22.43;;;15.73;;
18677;SDS011;9469;51.114;13.914;2023-04-08T16:10:31;22.77;;;16.87;;
18677;SDS011;9469;51.114;13.914;2023-04-08T16:15:38;21.20;;;15.33;;
18677;SDS011;9469;51.114;13.914;2023-04-08T16:20:50;22.60;;;16.20;;
18677;SDS011;9469;51.114;13.914;2023-04-08T16:25:55;24.17;;;16.10;;
18677;SDS011;9469;51.114;13.914;2023-04-08T16:31:04;23.33;;;16.07;;
18677;SDS011;9469;51.114;13.914;2023-04-08T16:36:12;24.73;;;17.07;;
18677;SDS011;9469;51.114;13.914;2023-04-08T16:41:20;24.10;;;18.27;;
18677;SDS011;9469;51.114;13.914;2023-04-08T16:46:29;25.63;;;18.13;;
18677;SDS011;9469;51.114;13.914;2023-04-08T16:51:39;24.10;;;17.13;;
18677;SDS011;9469;51.114;13.914;2023-04-08T16:56:45;27.23;;;17.50;;
18677;SDS011;9469;51.114;13.914;2023-04-08T17:01:50;28.33;;;19.17;;
18677;SDS011;9469;51.114;13.914;2023-04-08T17:07:01;28.77;;;19.50;;
18677;SDS011;9469;51.114;13.914;2023-04-08T17:12:07;25.33;;;19.43;;
18677;SDS011;9469;51.114;13.914;2023-04-08T17:17:13;27.63;;;18.07;;
18677;SDS011;9469;51.114;13.914;2023-04-08T17:22:23;24.70;;;17.80;;
18677;SDS011;9469;51.114;13.914;2023-04-08T17:27:28;25.80;;;18.27;;
18677;SDS011;9469;51.114;13.914;2023-04-08T17:32:41;23.73;;;17.53;;
18677;SDS011;9469;51.114;13.914;2023-04-08T17:37:49;25.33;;;18.27;;
18677;SDS011;9469;51.114;13.914;2023-04-08T17:42:55;25.30;;;18.00;;
18677;SDS011;9469;51.114;13.914;2023-04-08T17:48:00;25.93;;;18.37;;
18677;SDS011;9469;51.114;13.914;2023-04-08T17:53:12;26.23;;;17.63;;
18677;SDS011;9469;51.114;13.914;2023-04-08T17:58:18;24.23;;;16.87;;
18677;SDS011;9469;51.114;13.914;2023-04-08T18:03:25;24.57;;;16.63;;
18677;SDS011;9469;51.114;13.914;2023-04-08T18:08:33;24.57;;;17.33;;
18677;SDS011;9469;51.114;13.914;2023-04-08T18:13:38;24.00;;;17.43;;
18677;SDS011;9469;51.114;13.914;2023-04-08T18:18:44;29.23;;;21.43;;
18677;SDS011;9469;51.114;13.914;2023-04-08T18:23:54;34.10;;;22.67;;
18677;SDS011;9469;51.114;13.914;2023-04-08T18:29:00;29.80;;;22.03;;
18677;SDS011;9469;51.114;13.914;2023-04-08T18:34:06;31.80;;;20.43;;
18677;SDS011;9469;51.114;13.914;2023-04-08T18:39:15;32.97;;;21.43;;
18677;SDS011;9469;51.114;13.914;2023-04-08T18:44:21;31.30;;;20.87;;
18677;SDS011;9469;51.114;13.914;2023-04-08T18:49:28;32.67;;;21.37;;
18677;SDS011;9469;51.114;13.914;2023-04-08T18:54:37;32.80;;;22.00;;
18677;SDS011;9469;51.114;13.914;2023-04-08T18:59:45;37.20;;;24.33;;
18677;SDS011;9469;51.114;13.914;2023-04-08T19:04:54;38.90;;;23.90;;
18677;SDS011;9469;51.114;13.914;2023-04-08T19:10:03;35.00;;;23.07;;
18677;SDS011;9469;51.114;13.914;2023-04-08T19:15:10;30.90;;;21.00;;
18677;SDS011;9469;51.114;13.914;2023-04-08T19:20:16;31.53;;;22.17;;
18677;SDS011;9469;51.114;13.914;2023-04-08T19:25:26;32.53;;;23.20;;
18677;SDS011;9469;51.114;13.914;2023-04-08T19:30:33;42.77;;;23.97;;
18677;SDS011;9469;51.114;13.914;2023-04-08T19:35:40;37.10;;;23.13;;
18677;SDS011;9469;51.114;13.914;2023-04-08T19:40:51;36.03;;;23.30;;
18677;SDS011;9469;51.114;13.914;2023-04-08T19:45:57;38.13;;;24.50;;
18677;SDS011;9469;51.114;13.914;2023-04-08T19:51:03;33.07;;;23.03;;
18677;SDS011;9469;51.114;13.914;2023-04-08T19:56:11;39.27;;;25.07;;
18677;SDS011;9469;51.114;13.914;2023-04-08T20:01:18;45.20;;;30.00;;
18677;SDS011;9469;51.114;13.914;2023-04-08T20:06:25;53.13;;;33.20;;
18677;SDS011;9469;51.114;13.914;2023-04-08T20:11:34;46.17;;;26.90;;
18677;SDS011;9469;51.114;13.914;2023-04-08T20:16:44;46.20;;;27.83;;
18677;SDS011;9469;51.114;13.914;2023-04-08T20:21:50;41.00;;;26.43;;
18677;SDS011;9469;51.114;13.914;2023-04-08T20:27:10;46.40;;;28.00;;
18677;SDS011;9469;51.114;13.914;2023-04-08T20:32:17;42.13;;;27.73;;
18677;SDS011;9469;51.114;13.914;2023-04-08T20:37:23;42.43;;;26.30;;
18677;SDS011;9469;51.114;13.914;2023-04-08T20:42:35;40.47;;;25.37;;
18677;SDS011;9469;51.114;13.914;2023-04-08T20:47:41;40.47;;;25.50;;
18677;SDS011;9469;51.114;13.914;2023-04-08T20:52:47;40.23;;;26.63;;
18677;SDS011;9469;51.114;13.914;2023-04-08T20:57:59;38.07;;;25.73;;
18677;SDS011;9469;51.114;13.914;2023-04-08T21:03:08;51.17;;;29.77;;
18677;SDS011;9469;51.114;13.914;2023-04-08T21:08:14;45.33;;;28.53;;
18677;SDS011;9469;51.114;13.914;2023-04-08T21:13:24;56.03;;;34.40;;
18677;SDS011;9469;51.114;13.914;2023-04-08T21:18:32;55.07;;;33.90;;
18677;SDS011;9469;51.114;13.914;2023-04-08T21:23:38;56.17;;;35.43;;
18677;SDS011;9469;51.114;13.914;2023-04-08T21:28:45;56.03;;;32.77;;
18677;SDS011;9469;51.114;13.914;2023-04-08T21:33:51;55.57;;;33.27;;
18677;SDS011;9469;51.114;13.914;2023-04-08T21:38:59;71.40;;;40.07;;
18677;SDS011;9469;51.114;13.914;2023-04-08T21:44:10;79.57;;;42.90;;
18677;SDS011;9469;51.114;13.914;2023-04-08T21:49:18;68.93;;;40.77;;
18677;SDS011;9469;51.114;13.914;2023-04-08T21:54:23;57.10;;;33.77;;
18677;SDS011;9469;51.114;13.914;2023-04-08T21:59:36;58.70;;;36.13;;
18677;SDS011;9469;51.114;13.914;2023-04-08T22:04:42;45.60;;;29.03;;
18677;SDS011;9469;51.114;13.914;2023-04-08T22:09:47;45.83;;;29.67;;
18677;SDS011;9469;51.114;13.914;2023-04-08T22:14:57;47.50;;;30.70;;
18677;SDS011;9469;51.114;13.914;2023-04-08T22:20:06;47.67;;;29.83;;
18677;SDS011;9469;51.114;13.914;2023-04-08T22:25:13;41.23;;;26.57;;
18677;SDS011;9469;51.114;13.914;2023-04-08T22:30:21;41.77;;;25.63;;
18677;SDS011;9469;51.114;13.914;2023-04-08T22:35:27;53.03;;;29.60;;
18677;SDS011;9469;51.114;13.914;2023-04-08T22:40:34;46.43;;;29.53;;
18677;SDS011;9469;51.114;13.914;2023-04-08T22:45:45;57.37;;;32.27;;
18677;SDS011;9469;51.114;13.914;2023-04-08T22:50:53;46.70;;;28.43;;
18677;SDS011;9469;51.114;13.914;2023-04-08T22:55:58;46.80;;;30.77;;
18677;SDS011;9469;51.114;13.914;2023-04-08T23:01:11;47.67;;;29.40;;
18677;SDS011;9469;51.114;13.914;2023-04-08T23:06:18;45.37;;;30.00;;
18677;SDS011;9469;51.114;13.914;2023-04-08T23:11:26;50.90;;;31.50;;
18677;SDS011;9469;51.114;13.914;2023-04-08T23:16:35;43.57;;;28.03;;
18677;SDS011;9469;51.114;13.914;2023-04-08T23:21:43;42.77;;;26.87;;
18677;SDS011;9469;51.114;13.914;2023-04-08T23:26:48;38.83;;;26.13;;
18677;SDS011;9469;51.114;13.914;2023-04-08T23:31:57;34.87;;;23.80;;
18677;SDS011;9469;51.114;13.914;2023-04-08T23:37:02;33.43;;;23.37;;
18677;SDS011;9469;51.114;13.914;2023-04-08T23:42:08;35.70;;;22.77;;
18677;SDS011;9469;51.114;13.914;2023-04-08T23:47:16;29.73;;;20.00;;
18677;SDS011;9469;51.114;13.914;2023-04-08T23:52:23;30.10;;;20.63;;
18677;SDS011;9469;51.114;13.914;2023-04-08T23:57:32;28.13;;;19.87;;
